createdAt,value
2023-02-27T00:00:43.733Z,1.70
2023-02-27T00:01:43.740Z,1.50
2023-02-27T00:02:43.804Z,2.10
2023-02-27T00:03:43.788Z,1.70
2023-02-27T00:04:43.743Z,1.50
2023-02-27T00:05:43.745Z,1.90
2023-02-27T00:06:43.742Z,1.80
2023-02-27T00:07:43.745Z,1.90
2023-02-27T00:08:43.786Z,1.90
2023-02-27T00:09:43.746Z,1.80
2023-02-27T00:10:43.738Z,2.10
2023-02-27T00:11:43.743Z,1.80
2023-02-27T00:12:43.742Z,1.80
2023-02-27T00:13:43.747Z,2.00
2023-02-27T00:14:43.740Z,2.00
2023-02-27T00:15:43.797Z,1.70
2023-02-27T00:16:43.746Z,1.80
2023-02-27T00:17:43.749Z,1.70
2023-02-27T00:18:43.749Z,1.80
2023-02-27T00:19:43.751Z,1.50
2023-02-27T00:20:43.753Z,1.60
2023-02-27T00:21:43.748Z,2.30
2023-02-27T00:22:43.758Z,1.80
2023-02-27T00:23:43.749Z,2.20
2023-02-27T00:24:43.804Z,2.20
2023-02-27T00:25:43.748Z,2.00
2023-02-27T00:26:43.756Z,2.00
2023-02-27T00:27:43.765Z,1.90
2023-02-27T00:28:43.757Z,1.90
2023-02-27T00:29:43.754Z,2.20
2023-02-27T00:30:43.766Z,1.70
2023-02-27T00:31:44.019Z,2.30
2023-02-27T00:32:43.757Z,1.70
2023-02-27T00:33:43.753Z,2.00
2023-02-27T00:34:43.763Z,1.80
2023-02-27T00:35:43.769Z,2.10
2023-02-27T00:36:43.762Z,2.10
2023-02-27T00:37:43.755Z,2.00
2023-02-27T00:38:43.761Z,1.80
2023-02-27T00:39:43.757Z,1.60
2023-02-27T00:40:43.769Z,1.50
2023-02-27T00:41:43.763Z,1.70
2023-02-27T00:42:43.762Z,1.90
2023-02-27T00:43:43.760Z,2.10
2023-02-27T00:44:43.765Z,1.80
2023-02-27T00:45:43.758Z,1.90
2023-02-27T00:46:43.832Z,1.90
2023-02-27T00:47:43.822Z,1.80
2023-02-27T00:48:43.778Z,1.70
2023-02-27T00:49:43.768Z,1.90
2023-02-27T00:50:43.774Z,2.00
2023-02-27T00:51:43.763Z,2.10
2023-02-27T00:52:43.770Z,2.20
2023-02-27T00:53:43.765Z,1.80
2023-02-27T00:54:43.769Z,1.70
2023-02-27T00:55:43.766Z,1.70
2023-02-27T00:56:43.772Z,1.80
2023-02-27T00:57:43.943Z,2.00
2023-02-27T00:58:43.779Z,2.10
2023-02-27T00:59:43.768Z,2.00
2023-02-27T01:00:43.803Z,1.90
2023-02-27T01:01:43.769Z,1.80
2023-02-27T01:02:43.812Z,2.40
2023-02-27T01:03:43.897Z,1.90
2023-02-27T01:04:43.778Z,1.80
2023-02-27T01:05:43.779Z,1.80
2023-02-27T01:06:43.785Z,1.60
2023-02-27T01:07:43.781Z,1.60
2023-02-27T01:08:43.791Z,1.60
2023-02-27T01:09:43.778Z,1.70
2023-02-27T01:10:43.783Z,1.60
2023-02-27T01:11:43.782Z,1.50
2023-02-27T01:12:43.788Z,1.70
2023-02-27T01:13:43.791Z,1.60
2023-02-27T01:14:43.832Z,1.80
2023-02-27T01:15:43.786Z,1.60
2023-02-27T01:16:43.798Z,1.40
2023-02-27T01:17:43.808Z,1.60
2023-02-27T01:18:43.794Z,1.70
2023-02-27T01:19:43.814Z,1.80
2023-02-27T01:20:43.789Z,1.50
2023-02-27T01:21:43.793Z,1.50
2023-02-27T01:22:43.811Z,1.40
2023-02-27T01:23:43.790Z,1.40
2023-02-27T01:24:43.803Z,1.80
2023-02-27T01:25:43.802Z,1.70
2023-02-27T01:26:43.799Z,1.60
2023-02-27T01:27:43.796Z,1.50
2023-02-27T01:28:43.798Z,1.70
2023-02-27T01:29:43.804Z,2.40
2023-02-27T01:30:43.839Z,3.20
2023-02-27T01:31:43.964Z,3.10
2023-02-27T01:32:43.883Z,2.20
2023-02-27T01:33:43.812Z,2.10
2023-02-27T01:34:43.804Z,2.10
2023-02-27T01:35:43.823Z,1.40
2023-02-27T01:36:43.809Z,1.70
2023-02-27T01:37:43.805Z,1.60
2023-02-27T01:38:43.806Z,1.70
2023-02-27T01:39:43.810Z,1.60
2023-02-27T01:40:43.807Z,1.50
2023-02-27T01:41:43.807Z,1.70
2023-02-27T01:42:43.814Z,2.00
2023-02-27T01:43:43.807Z,1.50
2023-02-27T01:44:43.815Z,1.80
2023-02-27T01:45:43.874Z,1.70
2023-02-27T01:46:43.912Z,1.40
2023-02-27T01:47:43.822Z,1.40
2023-02-27T01:48:43.817Z,1.50
2023-02-27T01:49:43.812Z,1.40
2023-02-27T01:50:43.814Z,1.40
2023-02-27T01:51:43.832Z,1.20
2023-02-27T01:52:43.836Z,1.30
2023-02-27T01:53:43.819Z,1.30
2023-02-27T01:54:43.819Z,1.70
2023-02-27T01:55:43.824Z,5.10
2023-02-27T01:56:43.822Z,7.30
2023-02-27T01:57:43.818Z,7.50
2023-02-27T01:58:43.826Z,7.40
2023-02-27T01:59:43.825Z,4.10
2023-02-27T02:00:43.824Z,2.80
2023-02-27T02:01:43.820Z,2.50
2023-02-27T02:02:43.836Z,2.40
2023-02-27T02:03:43.825Z,2.20
2023-02-27T02:04:43.828Z,2.50
2023-02-27T02:05:43.828Z,1.80
2023-02-27T02:06:43.829Z,1.50
2023-02-27T02:07:43.848Z,1.20
2023-02-27T02:08:43.833Z,1.20
2023-02-27T02:09:43.829Z,1.50
2023-02-27T02:10:43.833Z,2.80
2023-02-27T02:11:43.842Z,4.00
2023-02-27T02:12:43.836Z,4.30
2023-02-27T02:13:43.835Z,3.50
2023-02-27T02:14:43.848Z,2.20
2023-02-27T02:15:43.835Z,1.40
2023-02-27T02:16:43.902Z,1.30
2023-02-27T02:17:43.837Z,1.30
2023-02-27T02:18:43.847Z,1.50
2023-02-27T02:19:43.838Z,2.00
2023-02-27T02:20:43.845Z,2.10
2023-02-27T02:21:43.837Z,1.90
2023-02-27T02:22:43.843Z,1.50
2023-02-27T02:23:43.865Z,1.40
2023-02-27T02:24:43.847Z,1.90
2023-02-27T02:25:43.846Z,3.10
2023-02-27T02:26:43.849Z,5.40
2023-02-27T02:27:43.845Z,4.50
2023-02-27T02:28:43.851Z,3.00
2023-02-27T02:29:43.850Z,2.30
2023-02-27T02:30:43.966Z,2.20
2023-02-27T02:31:44.118Z,2.10
2023-02-27T02:32:43.855Z,1.80
2023-02-27T02:33:43.852Z,1.40
2023-02-27T02:34:43.865Z,1.40
2023-02-27T02:35:43.862Z,1.50
2023-02-27T02:36:43.864Z,1.40
2023-02-27T02:37:43.855Z,1.60
2023-02-27T02:38:43.861Z,1.80
2023-02-27T02:39:43.877Z,1.30
2023-02-27T02:40:43.874Z,1.20
2023-02-27T02:41:43.860Z,1.30
2023-02-27T02:42:43.863Z,1.20
2023-02-27T02:43:43.862Z,1.30
2023-02-27T02:44:43.869Z,1.20
2023-02-27T02:45:43.939Z,1.00
2023-02-27T02:46:43.872Z,1.70
2023-02-27T02:47:43.869Z,1.50
2023-02-27T02:48:43.871Z,1.50
2023-02-27T02:49:43.880Z,1.30
2023-02-27T02:50:43.878Z,1.10
2023-02-27T02:51:43.872Z,1.10
2023-02-27T02:52:43.879Z,1.30
2023-02-27T02:53:43.878Z,1.40
2023-02-27T02:54:43.886Z,1.00
2023-02-27T02:55:43.894Z,1.00
2023-02-27T02:56:43.897Z,1.20
2023-02-27T02:57:43.883Z,1.30
2023-02-27T02:58:43.892Z,1.30
2023-02-27T02:59:43.881Z,1.10
2023-02-27T03:00:43.885Z,1.10
2023-02-27T03:01:43.980Z,1.10
2023-02-27T03:02:43.908Z,1.50
2023-02-27T03:03:43.893Z,1.00
2023-02-27T03:04:43.938Z,1.20
2023-02-27T03:05:43.889Z,1.20
2023-02-27T03:06:43.896Z,1.30
2023-02-27T03:07:43.955Z,1.20
2023-02-27T03:08:43.909Z,1.00
2023-02-27T03:09:43.996Z,1.20
2023-02-27T03:10:43.901Z,1.00
2023-02-27T03:11:43.926Z,1.20
2023-02-27T03:12:43.902Z,1.10
2023-02-27T03:13:43.901Z,1.10
2023-02-27T03:14:43.909Z,1.10
2023-02-27T03:15:43.951Z,1.30
2023-02-27T03:16:43.918Z,1.60
2023-02-27T03:17:43.909Z,1.20
2023-02-27T03:18:43.909Z,1.30
2023-02-27T03:19:43.906Z,1.30
2023-02-27T03:20:43.910Z,1.20
2023-02-27T03:21:43.907Z,1.00
2023-02-27T03:22:43.911Z,1.20
2023-02-27T03:23:43.922Z,1.10
2023-02-27T03:24:43.917Z,1.30
2023-02-27T03:25:43.911Z,1.20
2023-02-27T03:26:43.917Z,1.00
2023-02-27T03:27:43.933Z,1.20
2023-02-27T03:28:43.916Z,1.10
2023-02-27T03:29:43.923Z,1.20
2023-02-27T03:30:44.026Z,1.20
2023-02-27T03:31:44.093Z,1.10
2023-02-27T03:32:43.922Z,1.20
2023-02-27T03:33:43.918Z,1.60
2023-02-27T03:34:43.924Z,2.60
2023-02-27T03:35:43.923Z,3.30
2023-02-27T03:36:43.924Z,3.40
2023-02-27T03:37:43.924Z,3.00
2023-02-27T03:38:43.926Z,3.00
2023-02-27T03:39:43.927Z,2.40
2023-02-27T03:40:43.929Z,2.00
2023-02-27T03:41:43.930Z,2.00
2023-02-27T03:42:43.934Z,2.10
2023-02-27T03:43:43.949Z,1.40
2023-02-27T03:44:43.934Z,1.20
2023-02-27T03:45:43.937Z,1.10
2023-02-27T03:46:44.030Z,1.20
2023-02-27T03:47:43.938Z,1.40
2023-02-27T03:48:43.936Z,2.50
2023-02-27T03:49:43.936Z,1.60
2023-02-27T03:50:43.940Z,1.60
2023-02-27T03:51:43.940Z,1.70
2023-02-27T03:52:43.940Z,1.50
2023-02-27T03:53:43.942Z,1.90
2023-02-27T03:54:43.955Z,1.40
2023-02-27T03:55:43.942Z,1.20
2023-02-27T03:56:43.960Z,1.30
2023-02-27T03:57:43.943Z,1.50
2023-02-27T03:58:43.959Z,1.30
2023-02-27T03:59:44.081Z,1.30
2023-02-27T04:00:43.950Z,1.20
2023-02-27T04:01:43.979Z,1.40
2023-02-27T04:02:44.048Z,1.20
2023-02-27T04:03:43.950Z,2.30
2023-02-27T04:04:43.961Z,2.90
2023-02-27T04:05:43.960Z,3.20
2023-02-27T04:06:43.964Z,2.30
2023-02-27T04:07:43.959Z,1.80
2023-02-27T04:08:43.963Z,1.60
2023-02-27T04:09:43.966Z,1.60
2023-02-27T04:10:43.970Z,1.30
2023-02-27T04:11:43.967Z,1.20
2023-02-27T04:12:45.901Z,1.30
2023-02-27T04:13:43.966Z,1.10
2023-02-27T04:14:43.987Z,1.00
2023-02-27T04:15:44.141Z,1.00
2023-02-27T04:16:43.976Z,1.50
2023-02-27T04:17:43.969Z,2.10
2023-02-27T04:18:43.974Z,1.90
2023-02-27T04:19:43.969Z,1.60
2023-02-27T04:20:43.994Z,2.20
2023-02-27T04:21:43.983Z,1.90
2023-02-27T04:22:43.989Z,1.80
2023-02-27T04:23:43.982Z,1.80
2023-02-27T04:24:43.996Z,1.90
2023-02-27T04:25:43.979Z,2.40
2023-02-27T04:26:43.984Z,2.00
2023-02-27T04:27:43.987Z,1.60
2023-02-27T04:28:43.985Z,1.30
2023-02-27T04:29:43.987Z,1.60
2023-02-27T04:30:44.043Z,1.50
2023-02-27T04:31:44.191Z,1.30
2023-02-27T04:32:44.038Z,1.60
2023-02-27T04:33:44.011Z,1.70
2023-02-27T04:34:44.010Z,1.70
2023-02-27T04:35:44.022Z,1.80
2023-02-27T04:36:44.006Z,10.80
2023-02-27T04:37:43.997Z,13.30
2023-02-27T04:38:44.039Z,10.90
2023-02-27T04:39:44.049Z,6.50
2023-02-27T04:40:44.054Z,4.80
2023-02-27T04:41:44.048Z,4.10
2023-02-27T04:42:44.035Z,4.70
2023-02-27T04:43:44.045Z,3.60
2023-02-27T04:44:44.014Z,3.90
2023-02-27T04:45:44.112Z,3.20
2023-02-27T04:46:44.033Z,3.10
2023-02-27T04:47:44.108Z,3.00
2023-02-27T04:48:44.065Z,3.00
2023-02-27T04:49:44.105Z,4.00
2023-02-27T04:50:44.026Z,3.40
2023-02-27T04:51:44.114Z,2.80
2023-02-27T04:52:44.028Z,2.50
2023-02-27T04:53:44.030Z,2.20
2023-02-27T04:54:44.028Z,1.80
2023-02-27T04:55:44.037Z,1.70
2023-02-27T04:56:44.031Z,1.50
2023-02-27T04:57:44.036Z,1.30
2023-02-27T04:58:44.036Z,1.20
2023-02-27T04:59:44.036Z,1.30
2023-02-27T05:00:44.037Z,1.50
2023-02-27T05:01:44.072Z,1.40
2023-02-27T05:02:44.083Z,1.30
2023-02-27T05:03:44.066Z,1.20
2023-02-27T05:04:44.044Z,1.30
2023-02-27T05:05:44.048Z,1.20
2023-02-27T05:06:44.042Z,1.20
2023-02-27T05:07:44.058Z,1.30
2023-02-27T05:08:44.077Z,1.00
2023-02-27T05:09:44.058Z,1.10
2023-02-27T05:10:44.050Z,1.10
2023-02-27T05:11:44.051Z,1.00
2023-02-27T05:12:44.055Z,1.00
2023-02-27T05:13:44.059Z,1.20
2023-02-27T05:14:44.053Z,0.90
2023-02-27T05:15:44.088Z,1.20
2023-02-27T05:16:44.092Z,1.10
2023-02-27T05:17:44.078Z,1.10
2023-02-27T05:18:44.067Z,1.40
2023-02-27T05:19:44.086Z,3.40
2023-02-27T05:20:44.067Z,6.10
2023-02-27T05:21:44.083Z,3.60
2023-02-27T05:22:44.063Z,2.40
2023-02-27T05:23:44.078Z,1.60
2023-02-27T05:24:44.066Z,1.60
2023-02-27T05:25:44.072Z,1.40
2023-02-27T05:26:44.073Z,1.20
2023-02-27T05:27:44.072Z,1.40
2023-02-27T05:28:45.041Z,1.20
2023-02-27T05:29:44.077Z,1.30
2023-02-27T05:30:44.075Z,1.00
2023-02-27T05:31:44.161Z,1.10
2023-02-27T05:32:44.081Z,1.20
2023-02-27T05:33:44.088Z,1.20
2023-02-27T05:34:44.083Z,1.00
2023-02-27T05:35:44.127Z,1.10
2023-02-27T05:36:44.081Z,1.00
2023-02-27T05:37:44.088Z,1.00
2023-02-27T05:38:44.092Z,1.20
2023-02-27T05:39:44.086Z,1.20
2023-02-27T05:40:44.098Z,1.00
2023-02-27T05:41:44.098Z,1.20
2023-02-27T05:42:44.090Z,1.00
2023-02-27T05:43:44.099Z,1.20
2023-02-27T05:44:44.088Z,1.10
2023-02-27T05:45:44.198Z,1.10
2023-02-27T05:46:44.103Z,1.10
2023-02-27T05:47:44.099Z,1.20
2023-02-27T05:48:44.102Z,1.10
2023-02-27T05:49:44.098Z,1.30
2023-02-27T05:50:44.096Z,1.10
2023-02-27T05:51:44.127Z,1.30
2023-02-27T05:52:44.102Z,1.40
2023-02-27T05:53:44.106Z,1.40
2023-02-27T05:54:44.114Z,1.40
2023-02-27T05:55:44.125Z,1.50
2023-02-27T05:56:44.106Z,1.40
2023-02-27T05:57:44.130Z,1.20
2023-02-27T05:58:44.112Z,1.20
2023-02-27T05:59:44.145Z,1.10
2023-02-27T06:00:44.135Z,1.10
2023-02-27T06:01:46.283Z,1.30
2023-02-27T06:02:44.120Z,1.00
2023-02-27T06:03:44.179Z,1.30
2023-02-27T06:04:44.122Z,1.00
2023-02-27T06:05:44.173Z,1.20
2023-02-27T06:06:44.129Z,1.00
2023-02-27T06:07:44.150Z,1.00
2023-02-27T06:08:44.132Z,1.10
2023-02-27T06:09:44.139Z,1.10
2023-02-27T06:10:44.136Z,1.20
2023-02-27T06:11:44.138Z,0.90
2023-02-27T06:12:44.134Z,1.20
2023-02-27T06:13:44.142Z,1.00
2023-02-27T06:14:44.141Z,1.10
2023-02-27T06:15:44.150Z,1.00
2023-02-27T06:16:44.184Z,1.10
2023-02-27T06:17:44.144Z,1.20
2023-02-27T06:18:44.168Z,1.30
2023-02-27T06:19:44.193Z,1.10
2023-02-27T06:20:44.149Z,1.20
2023-02-27T06:21:44.162Z,1.10
2023-02-27T06:22:44.153Z,1.10
2023-02-27T06:23:44.177Z,1.00
2023-02-27T06:24:44.156Z,1.00
2023-02-27T06:25:44.173Z,1.00
2023-02-27T06:26:44.176Z,1.00
2023-02-27T06:27:44.160Z,1.50
2023-02-27T06:28:44.161Z,1.00
2023-02-27T06:29:44.175Z,1.20
2023-02-27T06:30:46.291Z,1.20
2023-02-27T06:31:44.188Z,1.00
2023-02-27T06:32:44.165Z,0.90
2023-02-27T06:33:44.174Z,1.00
2023-02-27T06:34:44.169Z,1.10
2023-02-27T06:35:44.270Z,1.10
2023-02-27T06:36:44.180Z,1.00
2023-02-27T06:37:44.176Z,1.00
2023-02-27T06:38:44.176Z,1.20
2023-02-27T06:39:44.201Z,0.90
2023-02-27T06:40:44.177Z,1.00
2023-02-27T06:41:44.191Z,1.10
2023-02-27T06:42:44.176Z,1.20
2023-02-27T06:43:44.186Z,1.20
2023-02-27T06:44:44.182Z,1.10
2023-02-27T06:45:44.195Z,1.20
2023-02-27T06:46:44.187Z,1.30
2023-02-27T06:47:44.189Z,1.60
2023-02-27T06:48:44.196Z,1.60
2023-02-27T06:49:44.199Z,1.90
2023-02-27T06:50:44.193Z,1.30
2023-02-27T06:51:45.165Z,1.30
2023-02-27T06:52:44.213Z,1.40
2023-02-27T06:53:44.200Z,1.00
2023-02-27T06:54:44.199Z,1.10
2023-02-27T06:55:44.229Z,1.30
2023-02-27T06:56:44.202Z,4.90
2023-02-27T06:57:45.234Z,9.90
2023-02-27T06:58:44.203Z,4.30
2023-02-27T06:59:44.214Z,1.50
2023-02-27T07:00:44.243Z,1.70
2023-02-27T07:01:44.268Z,1.30
2023-02-27T07:02:44.217Z,1.10
2023-02-27T07:03:44.230Z,1.50
2023-02-27T07:04:44.262Z,1.30
2023-02-27T07:05:44.249Z,1.10
2023-02-27T07:07:34.501Z,1.20
2023-02-27T07:07:44.227Z,1.00
2023-02-27T07:08:54.038Z,1.10
2023-02-27T07:09:44.240Z,1.00
2023-02-27T07:10:44.235Z,1.40
2023-02-27T07:11:44.352Z,1.10
2023-02-27T07:12:44.236Z,1.00
2023-02-27T07:13:44.250Z,1.10
2023-02-27T07:14:44.238Z,1.00
2023-02-27T07:15:44.282Z,1.50
2023-02-27T07:16:44.240Z,1.20
2023-02-27T07:17:44.245Z,1.30
2023-02-27T07:18:44.241Z,1.20
2023-02-27T07:19:44.248Z,1.20
2023-02-27T07:20:44.254Z,1.20
2023-02-27T07:21:44.250Z,1.00
2023-02-27T07:22:44.247Z,1.10
2023-02-27T07:23:44.272Z,1.00
2023-02-27T07:24:44.252Z,1.20
2023-02-27T07:25:44.257Z,1.20
2023-02-27T07:26:44.256Z,1.20
2023-02-27T07:27:44.306Z,1.20
2023-02-27T07:28:44.335Z,1.00
2023-02-27T07:29:44.263Z,0.90
2023-02-27T07:30:44.498Z,1.20
2023-02-27T07:31:44.328Z,1.20
2023-02-27T07:32:44.266Z,1.10
2023-02-27T07:33:44.269Z,1.20
2023-02-27T07:34:44.269Z,1.20
2023-02-27T07:35:44.304Z,1.20
2023-02-27T07:36:44.276Z,1.00
2023-02-27T07:37:44.277Z,1.10
2023-02-27T07:38:44.276Z,1.30
2023-02-27T07:39:44.280Z,0.90
2023-02-27T07:40:44.280Z,1.10
2023-02-27T07:41:44.285Z,1.10
2023-02-27T07:42:44.286Z,1.10
2023-02-27T07:43:44.315Z,1.10
2023-02-27T07:44:44.287Z,1.10
2023-02-27T07:45:44.293Z,0.90
2023-02-27T07:46:44.312Z,1.00
2023-02-27T07:47:44.301Z,0.90
2023-02-27T07:48:44.304Z,1.10
2023-02-27T07:49:44.306Z,0.90
2023-02-27T07:50:44.302Z,1.00
2023-02-27T07:51:44.302Z,1.00
2023-02-27T07:52:44.324Z,1.30
2023-02-27T07:53:44.311Z,1.30
2023-02-27T07:54:44.306Z,1.00
2023-02-27T07:55:44.313Z,1.00
2023-02-27T07:56:44.311Z,1.20
2023-02-27T07:57:44.318Z,1.30
2023-02-27T07:58:44.317Z,0.90
2023-02-27T07:59:44.384Z,1.10
2023-02-27T08:00:44.356Z,1.10
2023-02-27T08:01:44.326Z,0.80
2023-02-27T08:02:44.337Z,1.10
2023-02-27T08:03:44.325Z,0.90
2023-02-27T08:04:44.372Z,1.00
2023-02-27T08:05:44.362Z,1.20
2023-02-27T08:06:44.332Z,1.00
2023-02-27T08:07:44.335Z,0.90
2023-02-27T08:08:44.341Z,1.20
2023-02-27T08:09:44.353Z,1.00
2023-02-27T08:10:44.339Z,1.10
2023-02-27T08:11:44.347Z,1.10
2023-02-27T08:12:44.356Z,1.00
2023-02-27T08:14:01.529Z,1.00
2023-02-27T08:14:44.347Z,1.00
2023-02-27T08:15:44.390Z,1.10
2023-02-27T08:16:44.356Z,1.10
2023-02-27T08:17:44.364Z,1.30
2023-02-27T08:18:44.356Z,0.90
2023-02-27T08:19:44.359Z,1.10
2023-02-27T08:20:44.356Z,1.10
2023-02-27T08:21:44.381Z,0.90
2023-02-27T08:22:44.366Z,1.10
2023-02-27T08:23:44.370Z,0.90
2023-02-27T08:24:44.374Z,1.50
2023-02-27T08:25:44.369Z,1.00
2023-02-27T08:26:44.370Z,1.10
2023-02-27T08:27:44.377Z,1.20
2023-02-27T08:28:44.374Z,1.10
2023-02-27T08:29:44.381Z,1.10
2023-02-27T08:30:44.380Z,1.00
2023-02-27T08:31:44.597Z,1.00
2023-02-27T08:32:44.380Z,1.30
2023-02-27T08:33:44.385Z,1.00
2023-02-27T08:34:44.382Z,1.20
2023-02-27T08:35:44.424Z,1.00
2023-02-27T08:36:44.385Z,1.00
2023-02-27T08:37:44.396Z,1.00
2023-02-27T08:38:44.390Z,1.20
2023-02-27T08:39:44.395Z,0.90
2023-02-27T08:40:44.394Z,0.90
2023-02-27T08:41:44.401Z,1.00
2023-02-27T08:42:44.409Z,1.20
2023-02-27T08:43:44.564Z,1.10
2023-02-27T08:44:44.410Z,1.30
2023-02-27T08:45:44.467Z,1.00
2023-02-27T08:46:44.413Z,1.30
2023-02-27T08:47:44.433Z,1.00
2023-02-27T08:48:44.420Z,1.00
2023-02-27T08:49:44.423Z,1.00
2023-02-27T08:50:44.418Z,0.80
2023-02-27T08:51:44.435Z,1.00
2023-02-27T08:52:44.427Z,0.90
2023-02-27T08:53:44.430Z,0.90
2023-02-27T08:54:44.431Z,1.10
2023-02-27T08:55:44.434Z,0.90
2023-02-27T08:56:44.435Z,0.80
2023-02-27T08:57:44.451Z,1.00
2023-02-27T08:58:44.446Z,1.00
2023-02-27T08:59:44.507Z,1.00
2023-02-27T09:00:44.478Z,0.90
2023-02-27T09:01:44.450Z,1.00
2023-02-27T09:02:44.564Z,0.90
2023-02-27T09:03:44.513Z,1.10
2023-02-27T09:04:44.459Z,1.20
2023-02-27T09:05:44.555Z,1.10
2023-02-27T09:06:44.461Z,1.00
2023-02-27T09:07:44.461Z,0.90
2023-02-27T09:08:44.465Z,0.90
2023-02-27T09:09:44.470Z,0.90
2023-02-27T09:10:44.480Z,0.80
2023-02-27T09:11:44.491Z,1.10
2023-02-27T09:12:44.481Z,0.90
2023-02-27T09:13:44.491Z,1.00
2023-02-27T09:14:44.484Z,1.20
2023-02-27T09:15:44.503Z,1.00
2023-02-27T09:16:44.525Z,0.90
2023-02-27T09:17:44.490Z,0.80
2023-02-27T09:18:44.498Z,1.00
2023-02-27T09:19:44.516Z,1.00
2023-02-27T09:20:44.507Z,0.90
2023-02-27T09:21:44.511Z,0.90
2023-02-27T09:22:44.518Z,0.90
2023-02-27T09:23:44.504Z,0.90
2023-02-27T09:24:44.514Z,0.80
2023-02-27T09:25:44.510Z,1.00
2023-02-27T09:26:46.463Z,0.90
2023-02-27T09:27:44.523Z,1.00
2023-02-27T09:28:44.528Z,0.80
2023-02-27T09:29:44.529Z,0.80
2023-02-27T09:30:44.570Z,1.20
2023-02-27T09:31:44.663Z,1.00
2023-02-27T09:32:44.596Z,0.90
2023-02-27T09:33:44.536Z,0.90
2023-02-27T09:34:44.543Z,0.80
2023-02-27T09:35:44.640Z,0.90
2023-02-27T09:36:44.558Z,0.90
2023-02-27T09:37:44.546Z,0.90
2023-02-27T09:38:44.555Z,1.10
2023-02-27T09:39:46.268Z,0.90
2023-02-27T09:40:44.562Z,1.20
2023-02-27T09:41:44.565Z,1.00
2023-02-27T09:42:44.600Z,0.80
2023-02-27T09:43:44.577Z,1.00
2023-02-27T09:44:47.124Z,0.90
2023-02-27T09:45:44.696Z,0.80
2023-02-27T09:46:44.583Z,0.80
2023-02-27T09:47:44.583Z,0.80
2023-02-27T09:48:44.586Z,1.00
2023-02-27T09:49:44.591Z,0.90
2023-02-27T09:50:44.592Z,1.00
2023-02-27T09:51:44.618Z,0.90
2023-02-27T09:52:44.603Z,1.00
2023-02-27T09:53:44.601Z,0.80
2023-02-27T09:54:44.733Z,1.00
2023-02-27T09:55:44.608Z,1.00
2023-02-27T09:56:44.614Z,0.90
2023-02-27T09:57:44.615Z,0.90
2023-02-27T09:58:44.624Z,0.80
2023-02-27T09:59:44.624Z,0.90
2023-02-27T10:00:44.642Z,0.90
2023-02-27T10:01:44.640Z,1.00
2023-02-27T10:02:44.690Z,1.10
2023-02-27T10:03:44.641Z,0.90
2023-02-27T10:04:44.645Z,0.90
2023-02-27T10:05:44.648Z,1.00
2023-02-27T10:06:44.661Z,1.00
2023-02-27T10:07:44.671Z,1.00
2023-02-27T10:08:44.658Z,1.00
2023-02-27T10:09:44.686Z,1.00
2023-02-27T10:10:44.677Z,0.90
2023-02-27T10:11:44.683Z,1.10
2023-02-27T10:12:44.677Z,1.00
2023-02-27T10:13:44.680Z,1.00
2023-02-27T10:14:44.685Z,1.10
2023-02-27T10:15:44.687Z,1.10
2023-02-27T10:16:44.734Z,1.00
2023-02-27T10:17:44.699Z,1.00
2023-02-27T10:18:44.707Z,1.40
2023-02-27T10:19:44.704Z,1.00
2023-02-27T10:20:44.712Z,1.00
2023-02-27T10:21:44.717Z,1.00
2023-02-27T10:22:44.724Z,0.80
2023-02-27T10:23:44.753Z,1.00
2023-02-27T10:24:44.734Z,1.00
2023-02-27T10:25:44.732Z,1.10
2023-02-27T10:26:44.741Z,1.10
2023-02-27T10:27:44.753Z,0.90
2023-02-27T10:28:44.752Z,0.90
2023-02-27T10:29:44.768Z,1.00
2023-02-27T10:30:44.795Z,0.90
2023-02-27T10:31:44.781Z,0.90
2023-02-27T10:32:44.770Z,1.00
2023-02-27T10:33:44.788Z,1.00
2023-02-27T10:34:44.782Z,1.10
2023-02-27T10:35:44.832Z,0.90
2023-02-27T10:36:44.800Z,0.90
2023-02-27T10:37:44.794Z,1.00
2023-02-27T10:38:44.802Z,0.90
2023-02-27T10:39:44.832Z,0.90
2023-02-27T10:40:44.812Z,1.00
2023-02-27T10:41:44.819Z,1.00
2023-02-27T10:42:44.832Z,1.00
2023-02-27T10:43:44.825Z,1.00
2023-02-27T10:44:44.834Z,1.00
2023-02-27T10:45:44.836Z,0.90
2023-02-27T10:46:44.886Z,0.80
2023-02-27T10:47:44.849Z,1.00
2023-02-27T10:48:44.855Z,0.90
2023-02-27T10:49:44.855Z,1.00
2023-02-27T10:50:44.864Z,0.90
2023-02-27T10:51:44.876Z,0.90
2023-02-27T10:52:44.876Z,1.00
2023-02-27T10:53:44.897Z,0.90
2023-02-27T10:54:44.897Z,0.90
2023-02-27T10:55:44.910Z,1.00
2023-02-27T10:56:44.910Z,1.00
2023-02-27T10:57:44.902Z,1.00
2023-02-27T10:58:44.920Z,0.90
2023-02-27T10:59:44.912Z,0.90
2023-02-27T11:00:44.924Z,0.90
2023-02-27T11:01:44.998Z,1.00
2023-02-27T11:02:44.934Z,0.90
2023-02-27T11:03:44.937Z,0.90
2023-02-27T11:04:44.988Z,0.80
2023-02-27T11:05:44.947Z,0.80
2023-02-27T11:06:44.959Z,0.90
2023-02-27T11:07:44.966Z,0.80
2023-02-27T11:08:44.969Z,1.10
2023-02-27T11:09:44.972Z,1.10
2023-02-27T11:10:44.985Z,0.90
2023-02-27T11:11:45.009Z,1.00
2023-02-27T11:12:44.992Z,0.90
2023-02-27T11:13:44.995Z,0.80
2023-02-27T11:14:45.008Z,0.80
2023-02-27T11:15:45.032Z,0.90
2023-02-27T11:16:45.019Z,1.00
2023-02-27T11:17:45.022Z,0.80
2023-02-27T11:18:45.040Z,0.90
2023-02-27T11:19:45.039Z,0.90
2023-02-27T11:20:45.049Z,0.80
2023-02-27T11:21:45.045Z,0.90
2023-02-27T11:22:45.058Z,0.90
2023-02-27T11:23:45.056Z,0.80
2023-02-27T11:24:45.068Z,0.80
2023-02-27T11:25:45.074Z,0.80
2023-02-27T11:26:45.077Z,1.00
2023-02-27T11:27:45.099Z,0.90
2023-02-27T11:28:45.089Z,0.80
2023-02-27T11:29:45.095Z,1.00
2023-02-27T11:30:45.137Z,1.00
2023-02-27T11:31:45.140Z,1.00
2023-02-27T11:32:45.112Z,0.80
2023-02-27T11:33:45.117Z,1.00
2023-02-27T11:34:45.142Z,0.90
2023-02-27T11:35:45.143Z,0.80
2023-02-27T11:36:45.139Z,0.90
2023-02-27T11:37:45.143Z,0.90
2023-02-27T11:38:45.151Z,0.90
2023-02-27T11:39:45.157Z,0.80
2023-02-27T11:40:45.163Z,0.90
2023-02-27T11:41:45.205Z,1.00
2023-02-27T11:42:45.285Z,1.00
2023-02-27T11:43:45.294Z,0.90
2023-02-27T11:44:50.360Z,0.70
2023-02-27T11:46:04.821Z,0.90
2023-02-27T11:46:48.435Z,0.90
2023-02-27T11:47:45.207Z,0.80
2023-02-27T11:48:45.214Z,0.80
2023-02-27T11:49:45.214Z,1.00
2023-02-27T11:50:45.229Z,0.90
2023-02-27T11:51:45.225Z,0.90
2023-02-27T11:52:45.236Z,1.00
2023-02-27T11:53:45.236Z,0.90
2023-02-27T11:54:45.255Z,0.90
2023-02-27T11:55:45.264Z,0.90
2023-02-27T11:56:45.265Z,0.90
2023-02-27T11:57:45.265Z,0.80
2023-02-27T11:58:45.275Z,0.90
2023-02-27T11:59:45.329Z,0.80
2023-02-27T12:00:45.305Z,0.90
2023-02-27T12:01:45.292Z,0.70
2023-02-27T12:02:45.391Z,1.00
2023-02-27T12:03:45.376Z,0.90
2023-02-27T12:04:45.315Z,0.90
2023-02-27T12:05:45.315Z,0.90
2023-02-27T12:06:45.326Z,0.90
2023-02-27T12:07:45.333Z,0.90
2023-02-27T12:08:45.340Z,0.90
2023-02-27T12:09:45.341Z,0.80
2023-02-27T12:10:45.350Z,0.90
2023-02-27T12:11:45.362Z,0.80
2023-02-27T12:12:45.367Z,1.00
2023-02-27T12:13:45.494Z,0.90
2023-02-27T12:14:45.417Z,0.90
2023-02-27T12:15:45.394Z,1.00
2023-02-27T12:16:45.436Z,0.90
2023-02-27T12:17:45.392Z,0.80
2023-02-27T12:18:45.400Z,0.80
2023-02-27T12:19:45.406Z,0.80
2023-02-27T12:20:45.410Z,1.00
2023-02-27T12:21:45.416Z,0.90
2023-02-27T12:22:45.426Z,0.80
2023-02-27T12:23:45.426Z,1.00
2023-02-27T12:24:45.439Z,0.80
2023-02-27T12:25:45.437Z,0.90
2023-02-27T12:26:45.457Z,1.00
2023-02-27T12:27:45.451Z,0.90
2023-02-27T12:28:45.468Z,0.80
2023-02-27T12:29:45.480Z,0.90
2023-02-27T12:30:45.476Z,1.00
2023-02-27T12:31:45.584Z,0.90
2023-02-27T12:32:45.491Z,0.90
2023-02-27T12:33:45.487Z,0.90
2023-02-27T12:34:45.508Z,1.00
2023-02-27T12:35:45.511Z,0.90
2023-02-27T12:36:45.513Z,0.90
2023-02-27T12:37:45.510Z,0.90
2023-02-27T12:38:45.518Z,0.80
2023-02-27T12:39:45.529Z,0.90
2023-02-27T12:40:45.531Z,0.80
2023-02-27T12:41:45.535Z,0.90
2023-02-27T12:42:45.552Z,0.90
2023-02-27T12:43:45.547Z,0.90
2023-02-27T12:44:45.562Z,0.80
2023-02-27T12:45:45.636Z,0.80
2023-02-27T12:46:45.572Z,0.90
2023-02-27T12:47:45.592Z,0.90
2023-02-27T12:48:45.589Z,0.80
2023-02-27T12:49:45.603Z,1.10
2023-02-27T12:50:45.596Z,0.90
2023-02-27T12:51:45.604Z,1.00
2023-02-27T12:52:45.613Z,0.90
2023-02-27T12:53:45.632Z,0.80
2023-02-27T12:54:46.732Z,0.80
2023-02-27T12:55:45.626Z,0.80
2023-02-27T12:56:45.650Z,0.80
2023-02-27T12:57:45.638Z,0.90
2023-02-27T12:58:45.657Z,0.90
2023-02-27T12:59:45.649Z,0.90
2023-02-27T13:00:45.709Z,0.80
2023-02-27T13:01:45.666Z,0.70
2023-02-27T13:02:45.685Z,0.70
2023-02-27T13:03:45.770Z,0.90
2023-02-27T13:04:45.695Z,0.80
2023-02-27T13:05:45.697Z,0.90
2023-02-27T13:06:45.716Z,0.90
2023-02-27T13:07:45.713Z,0.70
2023-02-27T13:08:45.725Z,0.80
2023-02-27T13:09:45.726Z,1.00
2023-02-27T13:10:45.739Z,0.90
2023-02-27T13:11:45.748Z,0.90
2023-02-27T13:12:45.752Z,0.80
2023-02-27T13:13:45.769Z,0.90
2023-02-27T13:14:45.764Z,1.00
2023-02-27T13:15:45.775Z,0.80
2023-02-27T13:16:45.819Z,0.80
2023-02-27T13:17:45.793Z,0.90
2023-02-27T13:18:45.799Z,0.80